createdAt,value
2022-11-17T00:02:15.586Z,99218.38
2022-11-17T00:05:18.154Z,99218.31
2022-11-17T00:08:22.347Z,99218.63
2022-11-17T00:11:24.820Z,99217.84
2022-11-17T00:14:33.269Z,99227.94
2022-11-17T00:17:35.699Z,99217.09
2022-11-17T00:20:57.228Z,99227.56
2022-11-17T00:24:01.031Z,99219.81
2022-11-17T00:27:03.660Z,99219.47
2022-11-17T00:30:07.523Z,99213.63
2022-11-17T00:33:28.626Z,99217.97
2022-11-17T00:36:31.461Z,99216.34
2022-11-17T00:39:35.815Z,99216.31
2022-11-17T00:42:38.254Z,99217.09
2022-11-17T00:45:40.725Z,99217.50
2022-11-17T00:48:43.170Z,99219.53
2022-11-17T00:51:45.896Z,99220.22
2022-11-17T00:54:49.670Z,99217.69
2022-11-17T00:57:52.135Z,99210.25
2022-11-17T01:00:54.559Z,99219.56
2022-11-17T01:04:05.196Z,99225.44
2022-11-17T01:07:07.674Z,99225.38
2022-11-17T01:10:11.511Z,99231.53
2022-11-17T01:13:13.936Z,99229.97
2022-11-17T01:16:18.741Z,99211.44
2022-11-17T01:19:22.185Z,99203.72
2022-11-17T01:22:24.632Z,99208.38
2022-11-17T01:25:28.455Z,99209.94
2022-11-17T01:28:31.015Z,99211.53
2022-11-17T01:31:35.139Z,99222.34
2022-11-17T01:34:37.586Z,99225.75
2022-11-17T01:37:40.064Z,99225.41
2022-11-17T01:40:43.882Z,99230.44
2022-11-17T01:43:49.353Z,99221.19
2022-11-17T01:46:54.578Z,99220.44
2022-11-17T01:50:03.775Z,99225.44
2022-11-17T01:53:11.151Z,99236.59
2022-11-17T01:56:20.206Z,99237.81
2022-11-17T01:59:28.179Z,99240.97
2022-11-17T02:02:30.838Z,99235.84
2022-11-17T02:05:42.229Z,99232.34
2022-11-17T02:08:46.920Z,99239.84
2022-11-17T02:11:51.043Z,99234.34
2022-11-17T02:14:54.744Z,99222.38
2022-11-17T02:17:58.437Z,99232.06
2022-11-17T02:21:21.770Z,99233.22
2022-11-17T02:24:59.156Z,99233.63
2022-11-17T02:28:17.032Z,99238.66
2022-11-17T02:31:26.603Z,99244.50
2022-11-17T02:34:38.308Z,99246.03
2022-11-17T02:37:47.699Z,99238.31
2022-11-17T02:40:55.662Z,99237.19
2022-11-17T02:44:05.675Z,99236.44
2022-11-17T02:47:12.588Z,99236.00
2022-11-17T02:50:17.844Z,99233.72
2022-11-17T02:53:22.546Z,99231.00
2022-11-17T02:56:24.984Z,99220.59
2022-11-17T02:59:33.915Z,99227.88
2022-11-17T03:03:08.703Z,99243.38
2022-11-17T03:06:23.420Z,99252.28
2022-11-17T03:09:38.707Z,99249.63
2022-11-17T03:12:46.947Z,99244.53
2022-11-17T03:15:55.244Z,99246.50
2022-11-17T03:19:09.444Z,99251.97
2022-11-17T03:22:17.483Z,99253.84
2022-11-17T03:25:23.553Z,99260.06
2022-11-17T03:28:30.395Z,99262.00
2022-11-17T03:31:35.402Z,99253.13
2022-11-17T03:34:42.812Z,99260.13
2022-11-17T03:37:49.731Z,99264.75
2022-11-17T03:40:55.214Z,99253.88
2022-11-17T03:43:59.366Z,99260.44
2022-11-17T03:47:05.548Z,99261.22
2022-11-17T03:50:13.967Z,99257.78
2022-11-17T03:53:16.461Z,99255.13
2022-11-17T03:56:31.610Z,99264.00
2022-11-17T03:59:43.269Z,99277.53
2022-11-17T04:02:54.038Z,99252.75
2022-11-17T04:05:56.527Z,99252.75
2022-11-17T04:08:59.296Z,99257.38
2022-11-17T04:12:20.260Z,99261.28
2022-11-17T04:15:52.468Z,99270.28
2022-11-17T04:18:58.820Z,99260.56
2022-11-17T04:22:01.813Z,99247.78
2022-11-17T04:25:05.038Z,99248.97
2022-11-17T04:28:27.074Z,99242.75
2022-11-17T04:31:31.194Z,99247.41
2022-11-17T04:34:35.055Z,99260.94
2022-11-17T04:37:37.565Z,99264.47
2022-11-17T04:41:00.034Z,99279.56
2022-11-17T04:44:04.335Z,99284.59
2022-11-17T04:47:07.048Z,99293.13
2022-11-17T04:50:10.907Z,99294.66
2022-11-17T04:53:13.344Z,99281.56
2022-11-17T04:56:15.770Z,99289.25
2022-11-17T04:59:18.271Z,99282.28
2022-11-17T05:02:20.757Z,99279.22
2022-11-17T05:05:24.614Z,99289.25
2022-11-17T05:08:27.030Z,99279.56
2022-11-17T05:11:49.447Z,99282.28
2022-11-17T05:14:52.386Z,99283.81
2022-11-17T05:17:54.789Z,99290.38
2022-11-17T05:21:02.970Z,99284.63
2022-11-17T05:24:06.052Z,99290.44
2022-11-17T05:27:08.494Z,99289.28
2022-11-17T05:30:12.003Z,99295.47
2022-11-17T05:33:14.437Z,99301.69
2022-11-17T05:36:19.157Z,99299.72
2022-11-17T05:39:21.609Z,99298.56
2022-11-17T05:42:24.172Z,99290.09
2022-11-17T05:45:26.964Z,99297.44
2022-11-17T05:48:29.481Z,99306.75
2022-11-17T05:51:33.442Z,99315.63
2022-11-17T05:54:36.011Z,99319.88
2022-11-17T05:57:38.667Z,99319.13
2022-11-17T06:00:41.651Z,99329.16
2022-11-17T06:03:50.079Z,99334.19
2022-11-17T06:07:02.779Z,99329.16
2022-11-17T06:10:06.552Z,99351.19
2022-11-17T06:13:09.120Z,99343.88
2022-11-17T06:16:15.978Z,99347.38
2022-11-17T06:19:22.454Z,99350.06
2022-11-17T06:22:27.556Z,99359.34
2022-11-17T06:25:30.854Z,99358.56
2022-11-17T06:28:35.240Z,99357.41
2022-11-17T06:31:39.072Z,99364.00
2022-11-17T06:34:56.768Z,99362.06
2022-11-17T06:38:00.776Z,99370.19
2022-11-17T06:41:07.484Z,99378.69
2022-11-17T06:44:15.085Z,99381.41
2022-11-17T06:47:17.840Z,99387.97
2022-11-17T06:50:20.642Z,99395.31
2022-11-17T06:53:26.569Z,99391.06
2022-11-17T06:56:40.830Z,99401.91
2022-11-17T06:59:47.430Z,99395.31
2022-11-17T07:02:50.105Z,99401.13
2022-11-17T07:05:52.664Z,99403.81
2022-11-17T07:08:56.551Z,99401.13
2022-11-17T07:11:59.257Z,99396.06
2022-11-17T07:15:02.705Z,99407.28
2022-11-17T07:18:06.103Z,99411.94
2022-11-17T07:21:10.702Z,99413.88
2022-11-17T07:24:14.691Z,99418.91
2022-11-17T07:27:21.482Z,99421.63
2022-11-17T07:30:24.098Z,99426.66
2022-11-17T07:33:27.218Z,99423.94
2022-11-17T07:36:31.967Z,99436.69
2022-11-17T07:39:35.889Z,99441.38
2022-11-17T07:42:38.570Z,99444.06
2022-11-17T07:45:44.404Z,99430.53
2022-11-17T07:48:47.110Z,99432.44
2022-11-17T07:51:50.395Z,99427.41
2022-11-17T07:54:54.392Z,99441.31
2022-11-17T07:57:58.108Z,99428.56
2022-11-17T08:01:05.001Z,99435.16
2022-11-17T08:04:07.805Z,99441.31
2022-11-17T08:07:10.570Z,99430.13
2022-11-17T08:10:15.149Z,99413.47
2022-11-17T08:13:17.876Z,99409.59
2022-11-17T08:20:19.612Z,99433.97
2022-11-17T08:23:37.922Z,99432.81
2022-11-17T08:26:41.943Z,99458.75
2022-11-17T08:29:44.753Z,99447.53
2022-11-17T08:32:52.323Z,99452.94
2022-11-17T08:35:57.414Z,99467.66
2022-11-17T08:39:00.181Z,99468.81
2022-11-17T08:42:04.386Z,99465.72
2022-11-17T08:45:08.225Z,99463.00
2022-11-17T08:48:10.970Z,99469.97
2022-11-17T08:51:17.001Z,99480.03
2022-11-17T08:54:19.687Z,99478.47
2022-11-17T08:57:23.812Z,99481.97
2022-11-17T09:00:26.764Z,99481.53
2022-11-17T09:03:29.327Z,99460.97
2022-11-17T09:06:31.945Z,99476.03
2022-11-17T09:09:34.505Z,99473.72
2022-11-17T09:12:38.585Z,99474.91
2022-11-17T09:15:41.530Z,99477.56
2022-11-17T09:18:44.625Z,99476.19
2022-11-17T09:21:48.154Z,99480.88
2022-11-17T09:24:50.704Z,99481.66
2022-11-17T09:27:54.780Z,99486.13
2022-11-17T09:30:59.211Z,99479.34
2022-11-17T09:34:05.750Z,99478.69
2022-11-17T09:37:08.633Z,99465.53
2022-11-17T09:40:15.257Z,99474.75
2022-11-17T09:43:27.461Z,99467.56
2022-11-17T09:46:40.522Z,99468.72
2022-11-17T09:49:58.287Z,99464.66
2022-11-17T09:53:05.183Z,99459.28
2022-11-17T09:56:10.242Z,99472.22
2022-11-17T09:59:18.230Z,99467.50
2022-11-17T10:02:20.766Z,99467.63
2022-11-17T10:05:28.934Z,99468.06
2022-11-17T10:08:37.872Z,99465.53
2022-11-17T10:11:42.722Z,99467.44
2022-11-17T10:14:49.160Z,99453.97
2022-11-17T10:17:52.553Z,99459.31
2022-11-17T10:20:55.073Z,99454.41
2022-11-17T10:23:59.839Z,99456.31
2022-11-17T10:27:03.912Z,99448.81
2022-11-17T10:30:21.943Z,99456.13
2022-11-17T10:33:34.196Z,99452.59
2022-11-17T10:36:36.966Z,99458.03
2022-11-17T10:39:41.765Z,99448.00
2022-11-17T10:43:18.165Z,99450.25
2022-11-17T10:46:32.139Z,99447.63
2022-11-17T10:49:40.917Z,99455.22
2022-11-17T10:52:43.520Z,99455.00
2022-11-17T10:55:46.059Z,99450.63
2022-11-17T10:58:59.666Z,99463.38
2022-11-17T11:02:28.840Z,99455.00
2022-11-17T11:05:31.730Z,99449.00
2022-11-17T11:08:50.056Z,99455.56
2022-11-17T11:11:57.965Z,99445.38
2022-11-17T11:15:03.257Z,99453.28
2022-11-17T11:18:15.331Z,99456.78
2022-11-17T11:21:31.812Z,99450.03
2022-11-17T11:24:43.397Z,99455.13
2022-11-17T11:28:03.326Z,99462.81
2022-11-17T11:31:16.984Z,99459.72
2022-11-17T11:34:46.158Z,99470.47
2022-11-17T11:37:59.797Z,99469.44
2022-11-17T11:41:15.659Z,99468.75
2022-11-17T11:44:40.569Z,99476.25
2022-11-17T11:48:03.174Z,99482.34
2022-11-17T11:51:14.434Z,99474.22
2022-11-17T11:54:27.070Z,99479.03
2022-11-17T11:57:35.857Z,99478.03
2022-11-17T12:00:43.060Z,99475.44
2022-11-17T12:03:54.695Z,99488.50
2022-11-17T12:07:05.151Z,99485.69
2022-11-17T12:10:19.043Z,99487.28
2022-11-17T12:13:23.268Z,99489.19
2022-11-17T12:16:31.268Z,99483.25
2022-11-17T12:19:50.440Z,99487.94
2022-11-17T12:23:10.180Z,99489.19
2022-11-17T12:26:22.303Z,99484.56
2022-11-17T12:29:46.181Z,99479.97
2022-11-17T12:32:54.878Z,99493.31
2022-11-17T12:36:17.241Z,99485.19
2022-11-17T12:39:52.438Z,99481.81
2022-11-17T12:43:20.861Z,99489.06
2022-11-17T12:46:27.125Z,99490.03
2022-11-17T12:49:36.125Z,99492.59
2022-11-17T12:52:50.284Z,99490.25
2022-11-17T12:56:15.642Z,99490.91
2022-11-17T12:59:37.743Z,99485.50
2022-11-17T13:02:59.268Z,99476.13
2022-11-17T13:06:33.752Z,99478.16
2022-11-17T13:09:36.053Z,99474.25
2022-11-17T13:12:38.805Z,99471.56
2022-11-17T13:15:43.595Z,99467.91
2022-11-17T13:18:47.492Z,99469.94
2022-11-17T13:22:02.434Z,99479.28
2022-11-17T13:25:22.415Z,99462.38
2022-11-17T13:28:29.881Z,99480.94
2022-11-17T13:31:34.501Z,99493.22
2022-11-17T13:34:45.700Z,99498.53
2022-11-17T13:38:01.449Z,99501.16
2022-11-17T13:41:05.231Z,99499.72
2022-11-17T13:44:13.460Z,99504.38
2022-11-17T13:47:21.722Z,99504.47
2022-11-17T13:50:37.308Z,99501.94
2022-11-17T13:53:42.831Z,99506.22
2022-11-17T13:56:52.691Z,99509.00
2022-11-17T13:59:55.876Z,99496.25
2022-11-17T14:03:03.274Z,99501.66
2022-11-17T14:06:07.925Z,99502.84
2022-11-17T14:09:10.489Z,99512.41
2022-11-17T14:12:16.960Z,99515.75
2022-11-17T14:15:24.637Z,99509.81
2022-11-17T14:18:32.910Z,99512.56
2022-11-17T14:21:35.481Z,99512.25
2022-11-17T14:24:39.176Z,99518.63
2022-11-17T14:27:41.909Z,99516.47
2022-11-17T14:30:47.169Z,99517.03
2022-11-17T14:33:51.156Z,99517.53
2022-11-17T14:36:56.099Z,99524.66
2022-11-17T14:40:00.682Z,99526.69
2022-11-17T14:43:03.255Z,99527.63
2022-11-17T14:46:26.383Z,99533.47
2022-11-17T14:49:30.289Z,99537.81
2022-11-17T14:52:33.481Z,99546.38
2022-11-17T14:55:38.880Z,99542.88
2022-11-17T14:58:41.858Z,99537.88
2022-11-17T15:01:44.368Z,99541.75
2022-11-17T15:04:50.870Z,99544.50
2022-11-17T15:07:55.674Z,99541.38
2022-11-17T15:10:58.353Z,99545.28
2022-11-17T15:14:05.363Z,99538.78
2022-11-17T15:17:13.925Z,99532.63
2022-11-17T15:20:18.952Z,99530.81
2022-11-17T15:23:21.369Z,99523.44
2022-11-17T15:26:23.951Z,99520.47
2022-11-17T15:29:26.490Z,99512.38
2022-11-17T15:32:28.909Z,99513.91
2022-11-17T15:35:32.760Z,99515.09
2022-11-17T15:38:35.420Z,99520.56
2022-11-17T15:41:37.955Z,99517.47
2022-11-17T15:44:40.362Z,99519.00
2022-11-17T15:47:42.855Z,99523.72
2022-11-17T15:50:46.733Z,99525.69
2022-11-17T15:53:51.356Z,99524.94
2022-11-17T15:56:53.857Z,99515.25
2022-11-17T15:59:56.337Z,99514.47
2022-11-17T16:02:58.967Z,99509.84
2022-11-17T16:06:03.106Z,99511.03
2022-11-17T16:09:08.799Z,99521.44
2022-11-17T16:12:11.454Z,99517.59
2022-11-17T16:15:13.983Z,99522.63
2022-11-17T16:18:16.708Z,99526.50
2022-11-17T16:21:20.720Z,99534.63
2022-11-17T16:24:23.241Z,99539.66
2022-11-17T16:27:25.696Z,99528.44
2022-11-17T16:30:32.757Z,99529.97
2022-11-17T16:33:37.898Z,99524.94
2022-11-17T16:36:43.968Z,99537.31
2022-11-17T16:39:46.566Z,99544.28
2022-11-17T16:42:49.387Z,99543.13
2022-11-17T16:45:51.878Z,99553.94
2022-11-17T16:48:55.039Z,99549.69
2022-11-17T16:51:58.814Z,99559.38
2022-11-17T16:55:04.810Z,99564.44
2022-11-17T16:58:11.724Z,99564.44
2022-11-17T17:01:16.304Z,99566.34
2022-11-17T17:04:21.957Z,99563.28
2022-11-17T17:07:25.900Z,99565.59
2022-11-17T17:10:28.384Z,99561.72
2022-11-17T17:13:31.438Z,99552.41
2022-11-17T17:16:35.761Z,99542.38
2022-11-17T17:19:38.605Z,99545.06
2022-11-17T17:22:42.455Z,99547.41
2022-11-17T17:25:45.005Z,99541.19
2022-11-17T17:28:50.978Z,99542.38
2022-11-17T17:31:53.440Z,99526.50
2022-11-17T17:34:56.002Z,99522.22
2022-11-17T17:38:00.077Z,99517.22
2022-11-17T17:41:06.838Z,99530.34
2022-11-17T17:44:15.032Z,99552.81
2022-11-17T17:47:17.617Z,99543.09
2022-11-17T17:50:28.872Z,99543.88
2022-11-17T17:53:33.620Z,99544.66
2022-11-17T17:56:36.274Z,99557.00
2022-11-17T17:59:39.113Z,99550.03
2022-11-17T18:02:41.899Z,99555.78
2022-11-17T18:05:44.688Z,99553.47
2022-11-17T18:08:49.253Z,99542.25
2022-11-17T18:11:51.769Z,99552.72
2022-11-17T18:14:54.541Z,99541.06
2022-11-17T18:17:57.225Z,99546.50
2022-11-17T18:21:01.208Z,99544.22
2022-11-17T18:24:06.789Z,99530.66
2022-11-17T18:27:09.624Z,99539.19
2022-11-17T18:30:12.628Z,99543.84
2022-11-17T18:33:16.265Z,99544.59
2022-11-17T18:36:19.283Z,99543.44
2022-11-17T18:39:24.085Z,99532.22
2022-11-17T18:42:26.660Z,99534.16
2022-11-17T18:45:29.423Z,99538.41
2022-11-17T18:48:33.409Z,99538.81
2022-11-17T18:51:35.957Z,99532.66
2022-11-17T18:54:40.098Z,99550.03
2022-11-17T18:57:45.063Z,99545.38
2022-11-17T19:00:48.014Z,99543.88
2022-11-17T19:03:52.451Z,99559.31
2022-11-17T19:06:55.227Z,99557.78
2022-11-17T19:10:00.017Z,99560.47
2022-11-17T19:13:04.771Z,99566.72
2022-11-17T19:16:09.800Z,99558.97
2022-11-17T19:19:14.175Z,99568.59
2022-11-17T19:22:17.574Z,99568.22
2022-11-17T19:25:21.623Z,99567.88
2022-11-17T19:28:25.116Z,99577.19
2022-11-17T19:31:28.395Z,99581.41
2022-11-17T19:34:31.458Z,99575.97
2022-11-17T19:37:34.189Z,99574.47
2022-11-17T19:40:38.771Z,99570.22
2022-11-17T19:43:45.490Z,99560.94
2022-11-17T19:46:48.245Z,99565.19
2022-11-17T19:49:50.664Z,99567.13
2022-11-17T19:52:53.441Z,99575.66
2022-11-17T19:55:59.429Z,99572.56
2022-11-17T19:59:21.309Z,99573.72
2022-11-17T20:02:24.275Z,99574.13
2022-11-17T20:05:27.109Z,99577.63
2022-11-17T20:08:30.675Z,99580.31
2022-11-17T20:11:35.388Z,99582.25
2022-11-17T20:14:38.789Z,99573.75
2022-11-17T20:17:41.497Z,99578.00
2022-11-17T20:20:44.085Z,99578.38
2022-11-17T20:23:47.645Z,99583.00
2022-11-17T20:26:51.999Z,99577.63
2022-11-17T20:29:55.263Z,99576.44
2022-11-17T20:32:59.103Z,99568.69
2022-11-17T20:36:02.049Z,99563.66
2022-11-17T20:39:06.650Z,99576.03
2022-11-17T20:42:10.799Z,99579.53
2022-11-17T20:45:13.485Z,99577.22
2022-11-17T20:48:16.162Z,99564.03
2022-11-17T20:51:20.046Z,99555.53
2022-11-17T20:54:22.798Z,99566.75
2022-11-17T20:57:26.842Z,99574.13
2022-11-17T21:00:29.652Z,99555.53
2022-11-17T21:03:32.158Z,99545.47
2022-11-17T21:06:34.881Z,99553.59
2022-11-17T21:09:37.646Z,99547.00
2022-11-17T21:12:41.483Z,99540.03
2022-11-17T21:15:43.975Z,99547.38
2022-11-17T21:18:48.232Z,99540.03
2022-11-17T21:21:53.891Z,99531.53
2022-11-17T21:24:56.406Z,99531.91
2022-11-17T21:28:00.424Z,99528.81
2022-11-17T21:31:06.174Z,99524.94
2022-11-17T21:34:14.705Z,99531.91
2022-11-17T21:37:17.382Z,99526.13
2022-11-17T21:40:19.865Z,99519.53
2022-11-17T21:43:23.676Z,99519.13
2022-11-17T21:46:28.029Z,99517.59
2022-11-17T21:49:30.705Z,99506.38
2022-11-17T21:52:33.495Z,99504.84
2022-11-17T21:55:35.958Z,99507.13
2022-11-17T21:58:40.119Z,99517.59
2022-11-17T22:01:43.173Z,99495.13
2022-11-17T22:04:45.969Z,99485.09
2022-11-17T22:07:48.639Z,99514.84
2022-11-17T22:10:51.136Z,99538.88
2022-11-17T22:13:54.999Z,99531.91
2022-11-17T22:16:57.514Z,99531.50
2022-11-17T22:20:00.056Z,99514.84
2022-11-17T22:23:02.473Z,99511.78
2022-11-17T22:26:06.454Z,99517.56
2022-11-17T22:29:11.717Z,99521.41
2022-11-17T22:32:14.237Z,99519.88
2022-11-17T22:35:16.705Z,99524.13
2022-11-17T22:38:19.369Z,99516.78
2022-11-17T22:41:22.796Z,99510.59
2022-11-17T22:44:26.687Z,99504.44
2022-11-17T22:47:29.425Z,99509.44
2022-11-17T22:50:32.651Z,99498.22
2022-11-17T22:53:35.507Z,99487.75
2022-11-17T22:56:37.982Z,99498.59
2022-11-17T22:59:41.820Z,99492.44
2022-11-17T23:02:44.373Z,99487.75
2022-11-17T23:05:46.793Z,99490.88
2022-11-17T23:08:49.613Z,99477.72
2022-11-17T23:11:52.281Z,99489.31
2022-11-17T23:14:56.207Z,99472.28
2022-11-17T23:17:59.138Z,99465.31
2022-11-17T23:21:04.488Z,99459.94
2022-11-17T23:24:09.894Z,99459.94
2022-11-17T23:27:12.465Z,99461.47
2022-11-17T23:30:16.983Z,99462.66
2022-11-17T23:33:19.718Z,99457.22
2022-11-17T23:36:23.180Z,99466.91
2022-11-17T23:39:25.703Z,99459.16
2022-11-17T23:42:32.220Z,99454.91
2022-11-17T23:45:36.582Z,99458.00
2022-11-17T23:48:39.893Z,99451.03
2022-11-17T23:51:42.692Z,99456.81
2022-11-17T23:54:45.168Z,99454.91
2022-11-17T23:57:47.613Z,99449.09
